sensor_id;sensor_type;location;lat;lon;timestamp;P1;durP1;ratioP1;P2;durP2;ratioP2
41903;SDS011;27586;51.124;4.182;2023-07-20T00:01:59;8.90;;;4.20;;
41903;SDS011;27586;51.124;4.182;2023-07-20T00:04:25;8.55;;;4.22;;
41903;SDS011;27586;51.124;4.182;2023-07-20T00:06:51;9.30;;;4.68;;
41903;SDS011;27586;51.124;4.182;2023-07-20T00:09:16;9.07;;;4.65;;
41903;SDS011;27586;51.124;4.182;2023-07-20T00:11:48;7.38;;;4.10;;
41903;SDS011;27586;51.124;4.182;2023-07-20T00:14:18;8.60;;;4.57;;
41903;SDS011;27586;51.124;4.182;2023-07-20T00:16:47;6.70;;;4.07;;
41903;SDS011;27586;51.124;4.182;2023-07-20T00:19:20;8.85;;;4.18;;
41903;SDS011;27586;51.124;4.182;2023-07-20T00:21:47;10.80;;;4.35;;
41903;SDS011;27586;51.124;4.182;2023-07-20T00:24:13;7.20;;;3.90;;
41903;SDS011;27586;51.124;4.182;2023-07-20T00:26:38;6.85;;;4.18;;
41903;SDS011;27586;51.124;4.182;2023-07-20T00:29:04;9.50;;;4.10;;
41903;SDS011;27586;51.124;4.182;2023-07-20T00:31:30;7.22;;;3.78;;
41903;SDS011;27586;51.124;4.182;2023-07-20T00:33:56;7.82;;;4.32;;
41903;SDS011;27586;51.124;4.182;2023-07-20T00:36:21;6.78;;;4.00;;
41903;SDS011;27586;51.124;4.182;2023-07-20T00:38:47;8.82;;;4.10;;
41903;SDS011;27586;51.124;4.182;2023-07-20T00:41:12;9.45;;;3.92;;
41903;SDS011;27586;51.124;4.182;2023-07-20T00:43:38;8.68;;;4.38;;
41903;SDS011;27586;51.124;4.182;2023-07-20T00:46:04;8.52;;;4.00;;
41903;SDS011;27586;51.124;4.182;2023-07-20T00:48:30;7.90;;;3.90;;
41903;SDS011;27586;51.124;4.182;2023-07-20T00:50:56;9.70;;;4.07;;
41903;SDS011;27586;51.124;4.182;2023-07-20T00:53:24;8.70;;;3.97;;
41903;SDS011;27586;51.124;4.182;2023-07-20T00:55:49;8.60;;;4.57;;
41903;SDS011;27586;51.124;4.182;2023-07-20T00:58:15;6.88;;;4.00;;
41903;SDS011;27586;51.124;4.182;2023-07-20T01:00:41;7.80;;;3.90;;
41903;SDS011;27586;51.124;4.182;2023-07-20T01:03:06;8.98;;;4.22;;
41903;SDS011;27586;51.124;4.182;2023-07-20T01:08:39;5.88;;;3.80;;
41903;SDS011;27586;51.124;4.182;2023-07-20T01:11:36;6.82;;;4.13;;
41903;SDS011;27586;51.124;4.182;2023-07-20T01:14:08;5.10;;;3.90;;
41903;SDS011;27586;51.124;4.182;2023-07-20T01:16:35;7.70;;;4.00;;
41903;SDS011;27586;51.124;4.182;2023-07-20T01:19:01;6.40;;;4.45;;
41903;SDS011;27586;51.124;4.182;2023-07-20T01:32:40;7.75;;;4.32;;
41903;SDS011;27586;51.124;4.182;2023-07-20T01:35:08;6.47;;;4.53;;
41903;SDS011;27586;51.124;4.182;2023-07-20T01:37:36;7.95;;;4.30;;
41903;SDS011;27586;51.124;4.182;2023-07-20T01:40:02;6.53;;;4.55;;
41903;SDS011;27586;51.124;4.182;2023-07-20T01:42:28;6.80;;;4.30;;
41903;SDS011;27586;51.124;4.182;2023-07-20T01:44:54;6.85;;;4.18;;
41903;SDS011;27586;51.124;4.182;2023-07-20T01:47:20;6.20;;;4.68;;
41903;SDS011;27586;51.124;4.182;2023-07-20T01:49:46;8.40;;;4.63;;
41903;SDS011;27586;51.124;4.182;2023-07-20T01:52:11;7.55;;;4.85;;
41903;SDS011;27586;51.124;4.182;2023-07-20T01:54:37;6.32;;;4.43;;
41903;SDS011;27586;51.124;4.182;2023-07-20T01:57:03;8.07;;;4.65;;
41903;SDS011;27586;51.124;4.182;2023-07-20T01:59:29;5.53;;;4.85;;
41903;SDS011;27586;51.124;4.182;2023-07-20T02:01:54;8.98;;;4.80;;
41903;SDS011;27586;51.124;4.182;2023-07-20T02:04:20;6.05;;;4.60;;
41903;SDS011;27586;51.124;4.182;2023-07-20T02:06:46;6.82;;;4.60;;
41903;SDS011;27586;51.124;4.182;2023-07-20T02:09:11;6.57;;;4.75;;
41903;SDS011;27586;51.124;4.182;2023-07-20T02:11:37;11.85;;;5.63;;
41903;SDS011;27586;51.124;4.182;2023-07-20T02:14:02;6.95;;;4.70;;
41903;SDS011;27586;51.124;4.182;2023-07-20T02:16:28;7.43;;;5.10;;
41903;SDS011;27586;51.124;4.182;2023-07-20T02:18:54;7.72;;;5.00;;
41903;SDS011;27586;51.124;4.182;2023-07-20T02:21:21;9.25;;;5.25;;
41903;SDS011;27586;51.124;4.182;2023-07-20T02:23:47;6.28;;;4.93;;
41903;SDS011;27586;51.124;4.182;2023-07-20T02:26:13;7.38;;;4.82;;
41903;SDS011;27586;51.124;4.182;2023-07-20T02:28:39;7.10;;;4.85;;
41903;SDS011;27586;51.124;4.182;2023-07-20T02:31:06;5.72;;;4.35;;
41903;SDS011;27586;51.124;4.182;2023-07-20T02:33:32;9.23;;;5.72;;
41903;SDS011;27586;51.124;4.182;2023-07-20T02:35:57;7.57;;;4.57;;
41903;SDS011;27586;51.124;4.182;2023-07-20T02:38:23;8.05;;;5.18;;
41903;SDS011;27586;51.124;4.182;2023-07-20T02:40:49;6.28;;;5.35;;
41903;SDS011;27586;51.124;4.182;2023-07-20T02:43:15;6.32;;;5.35;;
41903;SDS011;27586;51.124;4.182;2023-07-20T02:45:41;7.82;;;5.38;;
41903;SDS011;27586;51.124;4.182;2023-07-20T02:48:09;7.63;;;5.53;;
41903;SDS011;27586;51.124;4.182;2023-07-20T02:50:35;6.20;;;5.25;;
41903;SDS011;27586;51.124;4.182;2023-07-20T02:53:01;7.57;;;5.93;;
41903;SDS011;27586;51.124;4.182;2023-07-20T02:55:27;6.70;;;4.93;;
41903;SDS011;27586;51.124;4.182;2023-07-20T02:57:53;7.18;;;5.57;;
41903;SDS011;27586;51.124;4.182;2023-07-20T03:00:19;7.68;;;5.07;;
41903;SDS011;27586;51.124;4.182;2023-07-20T03:02:45;6.75;;;5.13;;
41903;SDS011;27586;51.124;4.182;2023-07-20T03:05:14;5.55;;;4.90;;
41903;SDS011;27586;51.124;4.182;2023-07-20T03:07:41;8.88;;;5.70;;
41903;SDS011;27586;51.124;4.182;2023-07-20T03:10:08;7.28;;;5.65;;
41903;SDS011;27586;51.124;4.182;2023-07-20T03:12:35;6.53;;;4.80;;
41903;SDS011;27586;51.124;4.182;2023-07-20T03:15:04;6.45;;;5.57;;
41903;SDS011;27586;51.124;4.182;2023-07-20T03:17:30;6.55;;;5.47;;
41903;SDS011;27586;51.124;4.182;2023-07-20T03:19:55;6.80;;;5.93;;
41903;SDS011;27586;51.124;4.182;2023-07-20T03:22:21;6.60;;;5.25;;
41903;SDS011;27586;51.124;4.182;2023-07-20T03:24:47;7.88;;;6.32;;
41903;SDS011;27586;51.124;4.182;2023-07-20T03:27:13;6.30;;;5.70;;
41903;SDS011;27586;51.124;4.182;2023-07-20T03:29:38;7.15;;;6.43;;
41903;SDS011;27586;51.124;4.182;2023-07-20T03:32:04;7.68;;;5.82;;
41903;SDS011;27586;51.124;4.182;2023-07-20T03:34:30;10.90;;;7.35;;
41903;SDS011;27586;51.124;4.182;2023-07-20T03:36:56;7.88;;;7.07;;
41903;SDS011;27586;51.124;4.182;2023-07-20T03:39:22;7.47;;;6.10;;
41903;SDS011;27586;51.124;4.182;2023-07-20T03:41:48;7.28;;;6.57;;
41903;SDS011;27586;51.124;4.182;2023-07-20T03:44:13;7.93;;;7.07;;
41903;SDS011;27586;51.124;4.182;2023-07-20T03:46:39;9.10;;;7.22;;
41903;SDS011;27586;51.124;4.182;2023-07-20T03:49:05;7.95;;;6.32;;
41903;SDS011;27586;51.124;4.182;2023-07-20T03:51:31;8.50;;;7.18;;
41903;SDS011;27586;51.124;4.182;2023-07-20T03:53:57;9.02;;;7.20;;
41903;SDS011;27586;51.124;4.182;2023-07-20T03:56:23;10.73;;;6.85;;
41903;SDS011;27586;51.124;4.182;2023-07-20T03:58:49;7.88;;;6.47;;
41903;SDS011;27586;51.124;4.182;2023-07-20T04:01:15;8.15;;;6.63;;
41903;SDS011;27586;51.124;4.182;2023-07-20T04:03:41;10.85;;;7.28;;
41903;SDS011;27586;51.124;4.182;2023-07-20T04:06:08;8.23;;;7.30;;
41903;SDS011;27586;51.124;4.182;2023-07-20T04:08:35;8.95;;;7.30;;
41903;SDS011;27586;51.124;4.182;2023-07-20T04:11:02;7.88;;;7.00;;
41903;SDS011;27586;51.124;4.182;2023-07-20T04:13:28;8.50;;;7.70;;
41903;SDS011;27586;51.124;4.182;2023-07-20T04:15:53;8.45;;;7.50;;
41903;SDS011;27586;51.124;4.182;2023-07-20T04:18:20;11.90;;;7.07;;
41903;SDS011;27586;51.124;4.182;2023-07-20T04:20:45;10.10;;;7.30;;
41903;SDS011;27586;51.124;4.182;2023-07-20T04:23:11;9.27;;;7.72;;
41903;SDS011;27586;51.124;4.182;2023-07-20T04:25:39;7.75;;;6.63;;
41903;SDS011;27586;51.124;4.182;2023-07-20T04:28:09;7.63;;;6.82;;
41903;SDS011;27586;51.124;4.182;2023-07-20T04:30:35;7.82;;;6.60;;
41903;SDS011;27586;51.124;4.182;2023-07-20T04:33:02;9.18;;;6.70;;
41903;SDS011;27586;51.124;4.182;2023-07-20T04:38:17;8.27;;;7.03;;
41903;SDS011;27586;51.124;4.182;2023-07-20T04:40:46;8.07;;;6.68;;
41903;SDS011;27586;51.124;4.182;2023-07-20T04:43:14;9.55;;;6.90;;
41903;SDS011;27586;51.124;4.182;2023-07-20T04:45:40;8.10;;;6.80;;
41903;SDS011;27586;51.124;4.182;2023-07-20T04:48:10;8.25;;;6.68;;
41903;SDS011;27586;51.124;4.182;2023-07-20T04:50:42;7.63;;;6.43;;
41903;SDS011;27586;51.124;4.182;2023-07-20T04:53:10;8.13;;;5.90;;
41903;SDS011;27586;51.124;4.182;2023-07-20T04:55:36;7.40;;;6.05;;
41903;SDS011;27586;51.124;4.182;2023-07-20T04:58:03;8.82;;;5.90;;
41903;SDS011;27586;51.124;4.182;2023-07-20T05:00:30;6.88;;;6.13;;
41903;SDS011;27586;51.124;4.182;2023-07-20T05:02:56;6.22;;;5.47;;
41903;SDS011;27586;51.124;4.182;2023-07-20T05:05:22;6.85;;;5.68;;
41903;SDS011;27586;51.124;4.182;2023-07-20T05:07:48;6.88;;;6.22;;
41903;SDS011;27586;51.124;4.182;2023-07-20T05:10:13;7.35;;;5.90;;
41903;SDS011;27586;51.124;4.182;2023-07-20T05:12:39;9.13;;;6.30;;
41903;SDS011;27586;51.124;4.182;2023-07-20T05:15:04;7.00;;;6.15;;
41903;SDS011;27586;51.124;4.182;2023-07-20T05:17:30;8.05;;;6.25;;
41903;SDS011;27586;51.124;4.182;2023-07-20T05:19:56;6.70;;;6.10;;
41903;SDS011;27586;51.124;4.182;2023-07-20T05:22:22;7.00;;;6.38;;
41903;SDS011;27586;51.124;4.182;2023-07-20T05:24:49;6.60;;;6.00;;
41903;SDS011;27586;51.124;4.182;2023-07-20T05:27:15;6.20;;;5.60;;
41903;SDS011;27586;51.124;4.182;2023-07-20T05:29:44;6.65;;;6.05;;
41903;SDS011;27586;51.124;4.182;2023-07-20T05:32:10;6.35;;;5.75;;
41903;SDS011;27586;51.124;4.182;2023-07-20T05:34:36;6.20;;;5.60;;
41903;SDS011;27586;51.124;4.182;2023-07-20T05:37:01;6.90;;;6.30;;
41903;SDS011;27586;51.124;4.182;2023-07-20T05:39:27;6.43;;;5.82;;
41903;SDS011;27586;51.124;4.182;2023-07-20T05:41:52;6.72;;;5.95;;
41903;SDS011;27586;51.124;4.182;2023-07-20T05:44:18;6.72;;;5.30;;
41903;SDS011;27586;51.124;4.182;2023-07-20T05:46:44;6.68;;;5.40;;
41903;SDS011;27586;51.124;4.182;2023-07-20T05:49:09;6.00;;;5.07;;
41903;SDS011;27586;51.124;4.182;2023-07-20T05:51:35;7.20;;;5.65;;
41903;SDS011;27586;51.124;4.182;2023-07-20T05:54:01;5.43;;;4.75;;
41903;SDS011;27586;51.124;4.182;2023-07-20T05:56:27;5.10;;;4.70;;
41903;SDS011;27586;51.124;4.182;2023-07-20T05:58:52;5.13;;;4.60;;
41903;SDS011;27586;51.124;4.182;2023-07-20T06:01:18;5.00;;;4.60;;
41903;SDS011;27586;51.124;4.182;2023-07-20T06:03:44;5.57;;;4.93;;
41903;SDS011;27586;51.124;4.182;2023-07-20T06:06:09;5.13;;;4.35;;
41903;SDS011;27586;51.124;4.182;2023-07-20T06:08:37;5.80;;;4.30;;
41903;SDS011;27586;51.124;4.182;2023-07-20T06:11:02;4.30;;;3.90;;
41903;SDS011;27586;51.124;4.182;2023-07-20T06:13:28;3.67;;;3.38;;
41903;SDS011;27586;51.124;4.182;2023-07-20T06:15:54;3.88;;;3.58;;
41903;SDS011;27586;51.124;4.182;2023-07-20T06:18:21;4.07;;;3.22;;
41903;SDS011;27586;51.124;4.182;2023-07-20T06:20:50;3.35;;;3.00;;
41903;SDS011;27586;51.124;4.182;2023-07-20T06:23:16;3.65;;;2.78;;
41903;SDS011;27586;51.124;4.182;2023-07-20T06:25:45;2.00;;;1.90;;
41903;SDS011;27586;51.124;4.182;2023-07-20T06:28:11;1.30;;;1.20;;
41903;SDS011;27586;51.124;4.182;2023-07-20T06:30:36;1.70;;;1.30;;
41903;SDS011;27586;51.124;4.182;2023-07-20T06:33:02;2.05;;;1.10;;
41903;SDS011;27586;51.124;4.182;2023-07-20T06:35:28;2.53;;;1.30;;
41903;SDS011;27586;51.124;4.182;2023-07-20T06:37:54;1.70;;;0.80;;
41903;SDS011;27586;51.124;4.182;2023-07-20T06:40:19;1.08;;;0.95;;
41903;SDS011;27586;51.124;4.182;2023-07-20T06:42:45;0.90;;;0.90;;
41903;SDS011;27586;51.124;4.182;2023-07-20T06:45:11;1.60;;;1.10;;
41903;SDS011;27586;51.124;4.182;2023-07-20T06:47:40;0.80;;;0.73;;
41903;SDS011;27586;51.124;4.182;2023-07-20T06:50:06;1.88;;;1.00;;
41903;SDS011;27586;51.124;4.182;2023-07-20T06:52:32;1.40;;;0.90;;
41903;SDS011;27586;51.124;4.182;2023-07-20T06:54:58;1.55;;;0.98;;
41903;SDS011;27586;51.124;4.182;2023-07-20T06:57:24;1.02;;;0.93;;
41903;SDS011;27586;51.124;4.182;2023-07-20T06:59:50;2.30;;;1.20;;
41903;SDS011;27586;51.124;4.182;2023-07-20T07:02:16;1.55;;;1.45;;
41903;SDS011;27586;51.124;4.182;2023-07-20T07:04:42;1.30;;;1.20;;
41903;SDS011;27586;51.124;4.182;2023-07-20T07:07:07;1.55;;;1.20;;
41903;SDS011;27586;51.124;4.182;2023-07-20T07:09:34;1.73;;;0.88;;
41903;SDS011;27586;51.124;4.182;2023-07-20T07:12:00;1.08;;;0.80;;
41903;SDS011;27586;51.124;4.182;2023-07-20T07:14:25;1.25;;;1.00;;
41903;SDS011;27586;51.124;4.182;2023-07-20T07:16:51;1.10;;;1.00;;
41903;SDS011;27586;51.124;4.182;2023-07-20T07:19:17;0.70;;;0.70;;
41903;SDS011;27586;51.124;4.182;2023-07-20T07:21:42;2.40;;;1.00;;
41903;SDS011;27586;51.124;4.182;2023-07-20T07:24:08;2.25;;;1.15;;
41903;SDS011;27586;51.124;4.182;2023-07-20T07:26:34;0.88;;;0.88;;
41903;SDS011;27586;51.124;4.182;2023-07-20T07:29:01;1.65;;;1.00;;
41903;SDS011;27586;51.124;4.182;2023-07-20T07:31:28;0.68;;;0.68;;
41903;SDS011;27586;51.124;4.182;2023-07-20T07:33:55;1.13;;;0.90;;
41903;SDS011;27586;51.124;4.182;2023-07-20T07:36:21;1.52;;;0.90;;
41903;SDS011;27586;51.124;4.182;2023-07-20T07:38:46;0.70;;;0.70;;
41903;SDS011;27586;51.124;4.182;2023-07-20T07:41:13;1.75;;;0.70;;
41903;SDS011;27586;51.124;4.182;2023-07-20T07:43:39;1.08;;;0.70;;
41903;SDS011;27586;51.124;4.182;2023-07-20T07:46:04;0.70;;;0.60;;
41903;SDS011;27586;51.124;4.182;2023-07-20T07:48:30;2.25;;;1.13;;
41903;SDS011;27586;51.124;4.182;2023-07-20T07:50:56;0.77;;;0.60;;
41903;SDS011;27586;51.124;4.182;2023-07-20T07:53:22;0.75;;;0.70;;
41903;SDS011;27586;51.124;4.182;2023-07-20T07:55:47;0.95;;;0.50;;
41903;SDS011;27586;51.124;4.182;2023-07-20T07:58:13;0.63;;;0.50;;
41903;SDS011;27586;51.124;4.182;2023-07-20T08:00:39;0.90;;;0.60;;
41903;SDS011;27586;51.124;4.182;2023-07-20T08:03:08;1.05;;;0.50;;
41903;SDS011;27586;51.124;4.182;2023-07-20T08:05:33;0.60;;;0.50;;
41903;SDS011;27586;51.124;4.182;2023-07-20T08:08:00;0.95;;;0.55;;
41903;SDS011;27586;51.124;4.182;2023-07-20T08:10:29;0.80;;;0.70;;
41903;SDS011;27586;51.124;4.182;2023-07-20T08:12:55;1.15;;;0.55;;
41903;SDS011;27586;51.124;4.182;2023-07-20T08:15:21;0.65;;;0.60;;
41903;SDS011;27586;51.124;4.182;2023-07-20T08:17:46;0.52;;;0.52;;
41903;SDS011;27586;51.124;4.182;2023-07-20T08:20:13;0.63;;;0.60;;
41903;SDS011;27586;51.124;4.182;2023-07-20T08:22:41;0.65;;;0.65;;
41903;SDS011;27586;51.124;4.182;2023-07-20T08:25:07;0.40;;;0.40;;
41903;SDS011;27586;51.124;4.182;2023-07-20T08:27:33;0.68;;;0.50;;
41903;SDS011;27586;51.124;4.182;2023-07-20T08:29:59;0.80;;;0.65;;
41903;SDS011;27586;51.124;4.182;2023-07-20T08:32:25;1.55;;;0.73;;
41903;SDS011;27586;51.124;4.182;2023-07-20T08:34:51;0.40;;;0.40;;
41903;SDS011;27586;51.124;4.182;2023-07-20T08:37:17;0.60;;;0.60;;
41903;SDS011;27586;51.124;4.182;2023-07-20T08:39:43;0.75;;;0.55;;
41903;SDS011;27586;51.124;4.182;2023-07-20T08:42:09;0.85;;;0.57;;
41903;SDS011;27586;51.124;4.182;2023-07-20T08:44:36;0.60;;;0.60;;
41903;SDS011;27586;51.124;4.182;2023-07-20T08:47:03;1.30;;;0.70;;
41903;SDS011;27586;51.124;4.182;2023-07-20T08:49:33;1.40;;;0.70;;
41903;SDS011;27586;51.124;4.182;2023-07-20T08:52:00;0.70;;;0.70;;
41903;SDS011;27586;51.124;4.182;2023-07-20T08:54:29;0.80;;;0.63;;
41903;SDS011;27586;51.124;4.182;2023-07-20T08:57:00;0.75;;;0.60;;
41903;SDS011;27586;51.124;4.182;2023-07-20T08:59:28;1.42;;;0.70;;
41903;SDS011;27586;51.124;4.182;2023-07-20T09:01:55;0.75;;;0.75;;
41903;SDS011;27586;51.124;4.182;2023-07-20T09:04:23;1.30;;;0.70;;
41903;SDS011;27586;51.124;4.182;2023-07-20T09:06:49;0.52;;;0.52;;
41903;SDS011;27586;51.124;4.182;2023-07-20T09:09:15;0.85;;;0.52;;
41903;SDS011;27586;51.124;4.182;2023-07-20T09:11:41;1.00;;;0.52;;
41903;SDS011;27586;51.124;4.182;2023-07-20T09:14:07;1.10;;;0.63;;
41903;SDS011;27586;51.124;4.182;2023-07-20T09:16:47;1.35;;;0.50;;
41903;SDS011;27586;51.124;4.182;2023-07-20T09:19:17;0.60;;;0.52;;
41903;SDS011;27586;51.124;4.182;2023-07-20T09:21:49;1.10;;;0.50;;
41903;SDS011;27586;51.124;4.182;2023-07-20T09:24:17;0.65;;;0.52;;
41903;SDS011;27586;51.124;4.182;2023-07-20T09:26:45;0.60;;;0.52;;
41903;SDS011;27586;51.124;4.182;2023-07-20T09:29:13;0.65;;;0.60;;
41903;SDS011;27586;51.124;4.182;2023-07-20T09:31:39;1.08;;;0.80;;
41903;SDS011;27586;51.124;4.182;2023-07-20T09:34:05;0.70;;;0.70;;
41903;SDS011;27586;51.124;4.182;2023-07-20T09:36:37;0.80;;;0.70;;
41903;SDS011;27586;51.124;4.182;2023-07-20T09:39:03;0.82;;;0.70;;
41903;SDS011;27586;51.124;4.182;2023-07-20T09:41:41;1.05;;;0.50;;
41903;SDS011;27586;51.124;4.182;2023-07-20T09:44:07;1.00;;;0.63;;
41903;SDS011;27586;51.124;4.182;2023-07-20T09:46:45;1.13;;;0.50;;
41903;SDS011;27586;51.124;4.182;2023-07-20T09:49:11;0.55;;;0.50;;
41903;SDS011;27586;51.124;4.182;2023-07-20T09:51:37;1.35;;;0.63;;
41903;SDS011;27586;51.124;4.182;2023-07-20T09:54:04;1.83;;;0.68;;
41903;SDS011;27586;51.124;4.182;2023-07-20T09:56:30;1.10;;;0.50;;
41903;SDS011;27586;51.124;4.182;2023-07-20T09:58:58;2.78;;;0.73;;
41903;SDS011;27586;51.124;4.182;2023-07-20T10:01:24;1.20;;;0.60;;
41903;SDS011;27586;51.124;4.182;2023-07-20T10:03:53;0.90;;;0.60;;
41903;SDS011;27586;51.124;4.182;2023-07-20T10:06:28;1.38;;;0.70;;
41903;SDS011;27586;51.124;4.182;2023-07-20T10:08:59;1.77;;;0.60;;
41903;SDS011;27586;51.124;4.182;2023-07-20T10:11:30;1.00;;;0.60;;
41903;SDS011;27586;51.124;4.182;2023-07-20T10:13:59;0.73;;;0.60;;
41903;SDS011;27586;51.124;4.182;2023-07-20T10:16:31;0.40;;;0.40;;
41903;SDS011;27586;51.124;4.182;2023-07-20T10:19:09;1.05;;;0.95;;
41903;SDS011;27586;51.124;4.182;2023-07-20T10:21:43;1.00;;;0.80;;
41903;SDS011;27586;51.124;4.182;2023-07-20T10:24:16;1.48;;;0.60;;
41903;SDS011;27586;51.124;4.182;2023-07-20T10:26:43;1.23;;;1.10;;
41903;SDS011;27586;51.124;4.182;2023-07-20T10:29:09;1.83;;;1.40;;
41903;SDS011;27586;51.124;4.182;2023-07-20T10:31:37;1.88;;;1.45;;
41903;SDS011;27586;51.124;4.182;2023-07-20T10:34:03;1.35;;;1.25;;
41903;SDS011;27586;51.124;4.182;2023-07-20T10:36:29;2.17;;;1.20;;
41903;SDS011;27586;51.124;4.182;2023-07-20T10:38:55;1.20;;;1.10;;
41903;SDS011;27586;51.124;4.182;2023-07-20T10:41:28;1.85;;;1.42;;
41903;SDS011;27586;51.124;4.182;2023-07-20T10:43:59;1.55;;;1.38;;
41903;SDS011;27586;51.124;4.182;2023-07-20T10:46:33;2.13;;;1.30;;
41903;SDS011;27586;51.124;4.182;2023-07-20T10:49:07;2.17;;;1.52;;
41903;SDS011;27586;51.124;4.182;2023-07-20T10:56:42;1.58;;;1.48;;
41903;SDS011;27586;51.124;4.182;2023-07-20T10:59:36;1.52;;;1.42;;
41903;SDS011;27586;51.124;4.182;2023-07-20T11:02:09;1.80;;;1.70;;
41903;SDS011;27586;51.124;4.182;2023-07-20T11:04:42;1.75;;;1.65;;
41903;SDS011;27586;51.124;4.182;2023-07-20T11:07:09;1.80;;;1.70;;
41903;SDS011;27586;51.124;4.182;2023-07-20T11:09:35;3.42;;;1.90;;
41903;SDS011;27586;51.124;4.182;2023-07-20T11:12:14;4.05;;;1.60;;
41903;SDS011;27586;51.124;4.182;2023-07-20T11:14:54;1.50;;;1.40;;
41903;SDS011;27586;51.124;4.182;2023-07-20T11:17:21;2.30;;;1.30;;
41903;SDS011;27586;51.124;4.182;2023-07-20T11:19:57;2.25;;;1.55;;
41903;SDS011;27586;51.124;4.182;2023-07-20T11:22:26;1.50;;;1.40;;
41903;SDS011;27586;51.124;4.182;2023-07-20T11:24:55;1.70;;;1.60;;
41903;SDS011;27586;51.124;4.182;2023-07-20T11:27:21;1.58;;;1.48;;
41903;SDS011;27586;51.124;4.182;2023-07-20T11:29:50;1.60;;;1.50;;
41903;SDS011;27586;51.124;4.182;2023-07-20T11:32:22;1.65;;;1.52;;
41903;SDS011;27586;51.124;4.182;2023-07-20T11:34:49;3.72;;;2.20;;
41903;SDS011;27586;51.124;4.182;2023-07-20T11:37:16;2.40;;;1.73;;
41903;SDS011;27586;51.124;4.182;2023-07-20T11:39:42;2.05;;;1.85;;
41903;SDS011;27586;51.124;4.182;2023-07-20T11:42:08;2.10;;;2.00;;
41903;SDS011;27586;51.124;4.182;2023-07-20T11:44:33;1.92;;;1.70;;
41903;SDS011;27586;51.124;4.182;2023-07-20T11:47:02;1.70;;;1.60;;
41903;SDS011;27586;51.124;4.182;2023-07-20T11:49:41;1.80;;;1.70;;
41903;SDS011;27586;51.124;4.182;2023-07-20T11:52:08;2.17;;;1.70;;
41903;SDS011;27586;51.124;4.182;2023-07-20T11:54:35;2.28;;;1.85;;
41903;SDS011;27586;51.124;4.182;2023-07-20T11:57:03;2.30;;;2.10;;
41903;SDS011;27586;51.124;4.182;2023-07-20T11:59:30;2.22;;;2.13;;
41903;SDS011;27586;51.124;4.182;2023-07-20T12:01:56;2.40;;;2.20;;
41903;SDS011;27586;51.124;4.182;2023-07-20T12:04:23;2.47;;;2.30;;
41903;SDS011;27586;51.124;4.182;2023-07-20T12:06:49;2.97;;;2.78;;
41903;SDS011;27586;51.124;4.182;2023-07-20T12:09:15;3.08;;;2.80;;
41903;SDS011;27586;51.124;4.182;2023-07-20T12:11:42;3.00;;;2.70;;
41903;SDS011;27586;51.124;4.182;2023-07-20T12:14:10;3.42;;;3.22;;
41903;SDS011;27586;51.124;4.182;2023-07-20T12:16:36;4.65;;;3.53;;
41903;SDS011;27586;51.124;4.182;2023-07-20T12:19:05;3.00;;;2.67;;
41903;SDS011;27586;51.124;4.182;2023-07-20T12:21:36;3.33;;;2.90;;
41903;SDS011;27586;51.124;4.182;2023-07-20T12:24:03;3.45;;;3.15;;
41903;SDS011;27586;51.124;4.182;2023-07-20T12:26:29;2.70;;;2.50;;
41903;SDS011;27586;51.124;4.182;2023-07-20T12:28:56;2.95;;;2.75;;
41903;SDS011;27586;51.124;4.182;2023-07-20T12:31:22;2.85;;;2.65;;
41903;SDS011;27586;51.124;4.182;2023-07-20T12:33:51;3.00;;;2.80;;
41903;SDS011;27586;51.124;4.182;2023-07-20T12:36:18;2.65;;;2.47;;
41903;SDS011;27586;51.124;4.182;2023-07-20T12:38:44;3.08;;;2.78;;
41903;SDS011;27586;51.124;4.182;2023-07-20T12:41:10;3.47;;;2.92;;
41903;SDS011;27586;51.124;4.182;2023-07-20T12:43:42;3.03;;;2.70;;
41903;SDS011;27586;51.124;4.182;2023-07-20T12:46:09;3.22;;;3.00;;
41903;SDS011;27586;51.124;4.182;2023-07-20T12:48:39;2.97;;;2.78;;
41903;SDS011;27586;51.124;4.182;2023-07-20T12:51:07;3.67;;;3.38;;
41903;SDS011;27586;51.124;4.182;2023-07-20T12:53:33;4.10;;;3.65;;
41903;SDS011;27586;51.124;4.182;2023-07-20T12:56:00;3.78;;;3.50;;
41903;SDS011;27586;51.124;4.182;2023-07-20T12:58:26;3.88;;;3.58;;
41903;SDS011;27586;51.124;4.182;2023-07-20T13:00:52;3.45;;;3.25;;
41903;SDS011;27586;51.124;4.182;2023-07-20T13:03:18;4.00;;;3.50;;
41903;SDS011;27586;51.124;4.182;2023-07-20T13:05:44;3.13;;;2.92;;
41903;SDS011;27586;51.124;4.182;2023-07-20T13:08:13;3.58;;;3.30;;
41903;SDS011;27586;51.124;4.182;2023-07-20T13:10:39;3.83;;;3.45;;
41903;SDS011;27586;51.124;4.182;2023-07-20T13:13:05;3.38;;;3.08;;
41903;SDS011;27586;51.124;4.182;2023-07-20T13:15:31;4.82;;;3.30;;
41903;SDS011;27586;51.124;4.182;2023-07-20T13:17:58;3.20;;;2.63;;
41903;SDS011;27586;51.124;4.182;2023-07-20T13:20:24;3.33;;;3.03;;
41903;SDS011;27586;51.124;4.182;2023-07-20T13:22:51;3.42;;;3.13;;
41903;SDS011;27586;51.124;4.182;2023-07-20T13:25:17;3.53;;;3.00;;
41903;SDS011;27586;51.124;4.182;2023-07-20T13:27:43;3.47;;;3.20;;
41903;SDS011;27586;51.124;4.182;2023-07-20T13:30:09;3.58;;;3.25;;
41903;SDS011;27586;51.124;4.182;2023-07-20T13:32:41;3.72;;;3.40;;
41903;SDS011;27586;51.124;4.182;2023-07-20T13:35:10;3.22;;;2.90;;
41903;SDS011;27586;51.124;4.182;2023-07-20T13:37:37;4.53;;;2.70;;
41903;SDS011;27586;51.124;4.182;2023-07-20T13:40:03;2.95;;;2.67;;
41903;SDS011;27586;51.124;4.182;2023-07-20T13:42:30;2.70;;;2.50;;
41903;SDS011;27586;51.124;4.182;2023-07-20T13:44:56;3.90;;;3.60;;
41903;SDS011;27586;51.124;4.182;2023-07-20T13:47:22;3.90;;;3.60;;
41903;SDS011;27586;51.124;4.182;2023-07-20T13:49:48;6.38;;;3.03;;
41903;SDS011;27586;51.124;4.182;2023-07-20T13:52:14;3.50;;;3.20;;
41903;SDS011;27586;51.124;4.182;2023-07-20T13:54:39;2.83;;;2.63;;
41903;SDS011;27586;51.124;4.182;2023-07-20T13:57:05;2.90;;;2.30;;
41903;SDS011;27586;51.124;4.182;2023-07-20T13:59:31;2.60;;;2.03;;
41903;SDS011;27586;51.124;4.182;2023-07-20T14:01:57;3.17;;;1.73;;
41903;SDS011;27586;51.124;4.182;2023-07-20T14:04:22;3.55;;;1.98;;
41903;SDS011;27586;51.124;4.182;2023-07-20T14:06:48;3.65;;;2.15;;
41903;SDS011;27586;51.124;4.182;2023-07-20T14:09:14;1.88;;;1.77;;
41903;SDS011;27586;51.124;4.182;2023-07-20T14:11:40;1.88;;;1.77;;
41903;SDS011;27586;51.124;4.182;2023-07-20T14:14:06;3.15;;;2.00;;
41903;SDS011;27586;51.124;4.182;2023-07-20T14:16:31;2.00;;;1.90;;
41903;SDS011;27586;51.124;4.182;2023-07-20T14:18:57;4.10;;;2.13;;
41903;SDS011;27586;51.124;4.182;2023-07-20T14:21:24;2.20;;;2.03;;
41903;SDS011;27586;51.124;4.182;2023-07-20T14:23:51;1.95;;;1.63;;
41903;SDS011;27586;51.124;4.182;2023-07-20T14:26:20;2.13;;;1.80;;
41903;SDS011;27586;51.124;4.182;2023-07-20T14:28:46;2.78;;;1.80;;
41903;SDS011;27586;51.124;4.182;2023-07-20T14:31:12;1.73;;;1.60;;
41903;SDS011;27586;51.124;4.182;2023-07-20T14:33:38;1.92;;;1.73;;
41903;SDS011;27586;51.124;4.182;2023-07-20T14:36:04;1.60;;;1.40;;
41903;SDS011;27586;51.124;4.182;2023-07-20T14:38:30;2.45;;;1.77;;
41903;SDS011;27586;51.124;4.182;2023-07-20T14:40:56;4.00;;;2.22;;
41903;SDS011;27586;51.124;4.182;2023-07-20T14:43:22;3.55;;;1.67;;
41903;SDS011;27586;51.124;4.182;2023-07-20T14:45:48;1.98;;;1.80;;
41903;SDS011;27586;51.124;4.182;2023-07-20T14:48:13;3.78;;;1.90;;
41903;SDS011;27586;51.124;4.182;2023-07-20T14:50:39;2.88;;;1.75;;
41903;SDS011;27586;51.124;4.182;2023-07-20T14:53:05;2.53;;;1.75;;
41903;SDS011;27586;51.124;4.182;2023-07-20T14:55:32;2.90;;;1.75;;
41903;SDS011;27586;51.124;4.182;2023-07-20T14:57:58;2.58;;;1.20;;
41903;SDS011;27586;51.124;4.182;2023-07-20T15:00:23;2.55;;;1.00;;
41903;SDS011;27586;51.124;4.182;2023-07-20T15:02:50;1.83;;;0.95;;
41903;SDS011;27586;51.124;4.182;2023-07-20T15:05:20;2.38;;;0.90;;
41903;SDS011;27586;51.124;4.182;2023-07-20T15:07:47;1.23;;;1.00;;
41903;SDS011;27586;51.124;4.182;2023-07-20T15:10:12;2.65;;;1.20;;